Airfield :
LOGIN :

Register | Disclaimer

   EN    FR    IT 

 










Legend :    VFR   Marginal VFR   IFR   Intensive IFR   Very Intensive IFR
Visi :
Ceiling :
>= 8 km
>= 3000ft
5 to 8 km
1000 to 3000 ft
1500m to 5 km
500 to 1000 ft
800 to 1500m
200 to 500 ft
< 800m
< 200 ft
Symbols :   Thunderstorms  Fog  Heavy snow  Heavy precipitations  Wind > 20 kt
SIGMETs :     Misc.  Thunderstorms  Icing  Turbulence  Mountain Waves  Volcanic Ashes






- Airport Elevation : 100 ft


EBDT - Schaffen

CURRENT METAR :
  • 160355Z 20006KT 9999 FEW016 SCT030 BKN120 11/10 Q1009 BLU

EXPIRED METARs :
  • 160325Z 21006KT 9999 FEW009 SCT016 BKN020 11/10 Q1009 WHT
  • 160314Z 21006KT 9999 FEW009 SCT016 BKN020 12/10 Q1009 WHT
  • 160255Z AUTO 21007KT 9999 FEW007/// BKN014/// BKN041/// 12/10 Q1009 GRN
  • 160225Z AUTO 19007KT 9999 FEW006/// SCT008/// BKN012/// 11/10 Q1009 GRN
  • 160217Z AUTO 19007KT 9999 FEW007/// SCT014/// BKN018/// 11/10 Q1009 GRN
  • 160207Z AUTO 19007KT 9999 FEW011/// SCT019/// BKN028/// 11/10 Q1009 WHT
  • 160155Z AUTO 20007KT 9999 FEW019/// SCT025/// BKN035/// 11/10 Q1009 BLU
  • 160125Z AUTO 19008KT 9999 FEW019/// SCT022/// BKN055/// 11/10 Q1009 WHT

Expired Forecast.



MET'MAP, your aeronautical weather chart ! - Copyright ORBIFLY December 2007 - Disclaimer

ORBIFLY MET'MAP TEAM :

Programming & Development : Alexandra Zaïnal
Concept & Development : Baudouin d'Aumeries
Co-Development & Prog : Marc-Olivier Méhu
Technical & hardware support : Manuel Goepfert

Contact : metmap@orbifly.com




SOURCES & CREDITS :

   NOAA